createdAt,value
2022-12-08T00:00:24.099Z,95100.16
2022-12-08T00:02:22.377Z,95102.09
2022-12-08T00:04:20.367Z,95109.47
2022-12-08T00:06:40.938Z,95112.44
2022-12-08T00:08:57.935Z,95119.56
2022-12-08T00:10:55.901Z,95126.00
2022-12-08T00:12:53.723Z,95121.25
2022-12-08T00:14:51.836Z,95118.72
2022-12-08T00:16:49.836Z,95116.06
2022-12-08T00:18:47.800Z,95121.56
2022-12-08T00:20:45.740Z,95132.59
2022-12-08T00:22:43.795Z,95134.31
2022-12-08T00:24:44.943Z,95120.66
2022-12-08T00:26:42.872Z,95132.19
2022-12-08T00:28:41.038Z,95128.59
2022-12-08T00:30:40.668Z,95130.44
2022-12-08T00:32:38.935Z,95131.59
2022-12-08T00:34:37.093Z,95134.53
2022-12-08T00:36:35.302Z,95143.41
2022-12-08T00:38:33.402Z,95145.34
2022-12-08T00:40:32.758Z,95141.50
2022-12-08T00:42:30.869Z,95151.06
2022-12-08T00:44:28.863Z,95156.41
2022-12-08T00:46:26.802Z,95144.16
2022-12-08T00:48:24.867Z,95152.06
2022-12-08T00:50:22.836Z,95144.69
2022-12-08T00:52:21.125Z,95146.28
2022-12-08T00:54:19.505Z,95149.88
2022-12-08T00:56:19.084Z,95143.00
2022-12-08T00:58:17.110Z,95145.44
2022-12-08T01:00:15.358Z,95146.19
2022-12-08T01:02:13.242Z,95142.59
2022-12-08T01:04:12.248Z,95137.28
2022-12-08T01:06:11.008Z,95131.28
2022-12-08T01:08:09.976Z,95129.56
2022-12-08T01:10:08.887Z,95138.28
2022-12-08T01:12:08.736Z,95139.38
2022-12-08T01:14:06.805Z,95133.44
2022-12-08T01:16:05.327Z,95131.00
2022-12-08T01:18:03.559Z,95134.03
2022-12-08T01:20:02.336Z,95134.31
2022-12-08T01:22:00.573Z,95134.09
2022-12-08T01:24:00.982Z,95131.50
2022-12-08T01:26:02.477Z,95133.94
2022-12-08T01:28:01.933Z,95128.00
2022-12-08T01:29:59.745Z,95125.59
2022-12-08T01:31:57.679Z,95126.59
2022-12-08T01:33:55.760Z,95123.41
2022-12-08T01:35:53.829Z,95112.88
2022-12-08T01:37:51.949Z,95113.69
2022-12-08T01:39:49.880Z,95117.38
2022-12-08T01:41:48.635Z,95119.88
2022-12-08T01:43:58.414Z,95109.84
2022-12-08T01:45:56.422Z,95117.53
2022-12-08T01:47:57.698Z,95115.59
2022-12-08T01:49:55.874Z,95113.00
2022-12-08T01:54:41.735Z,95104.53
2022-12-08T01:56:43.414Z,95094.47
2022-12-08T01:58:46.560Z,95108.19
2022-12-08T02:00:46.044Z,95096.25
2022-12-08T02:02:49.069Z,95089.56
2022-12-08T02:04:47.146Z,95098.03
2022-12-08T02:06:46.115Z,95100.78
2022-12-08T02:08:50.027Z,95108.41
2022-12-08T02:10:56.287Z,95104.66
2022-12-08T02:12:59.080Z,95112.03
2022-12-08T02:15:01.851Z,95101.97
2022-12-08T02:17:16.226Z,95106.16
2022-12-08T02:19:33.224Z,95101.41
2022-12-08T02:21:38.207Z,95094.38
2022-12-08T02:23:45.048Z,95096.38
2022-12-08T02:25:57.110Z,95093.28
2022-12-08T02:28:01.703Z,95097.56
2022-12-08T02:30:18.902Z,95097.06
2022-12-08T02:32:24.810Z,95091.63
2022-12-08T02:34:30.682Z,95106.91
2022-12-08T02:36:37.201Z,95099.75
2022-12-08T02:38:43.426Z,95103.50
2022-12-08T02:40:46.366Z,95092.94
2022-12-08T02:42:46.326Z,95097.03
2022-12-08T02:44:49.952Z,95100.91
2022-12-08T02:46:49.570Z,95089.03
2022-12-08T02:48:48.055Z,95091.28
2022-12-08T02:50:47.327Z,95084.56
2022-12-08T02:52:46.159Z,95088.09
2022-12-08T02:54:46.517Z,95092.63
2022-12-08T02:57:09.416Z,95082.06
2022-12-08T02:59:26.059Z,95096.03
2022-12-08T03:01:35.536Z,95096.31
2022-12-08T03:03:36.852Z,95096.47
2022-12-08T03:05:43.382Z,95096.78
2022-12-08T03:07:47.007Z,95094.59
2022-12-08T03:09:47.568Z,95093.44
2022-12-08T03:11:48.922Z,95090.75
2022-12-08T03:13:48.476Z,95087.50
2022-12-08T03:15:48.604Z,95098.19
2022-12-08T03:17:48.617Z,95091.50
2022-12-08T03:19:47.440Z,95089.50
2022-12-08T03:21:46.554Z,95082.25
2022-12-08T03:23:47.675Z,95083.41
2022-12-08T03:25:49.691Z,95090.25
2022-12-08T03:27:47.837Z,95095.78
2022-12-08T03:29:46.699Z,95098.44
2022-12-08T03:31:47.033Z,95097.81
2022-12-08T03:33:46.766Z,95097.97
2022-12-08T03:35:45.027Z,95097.97
2022-12-08T03:37:43.568Z,95098.91
2022-12-08T03:39:42.944Z,95093.09
2022-12-08T03:41:40.879Z,95100.97
2022-12-08T03:43:38.955Z,95098.44
2022-12-08T03:45:36.980Z,95098.44
2022-12-08T03:47:34.821Z,95091.28
2022-12-08T03:49:32.859Z,95103.31
2022-12-08T03:51:30.829Z,95102.06
2022-12-08T03:53:28.755Z,95098.78
2022-12-08T03:55:28.061Z,95102.47
2022-12-08T03:57:26.011Z,95106.06
2022-12-08T03:59:24.153Z,95106.06
2022-12-08T04:01:22.700Z,95110.41
2022-12-08T04:03:20.837Z,95104.31
2022-12-08T04:05:19.034Z,95101.97
2022-12-08T04:07:17.293Z,95109.69
2022-12-08T04:09:15.333Z,95105.50
2022-12-08T04:11:14.604Z,95105.31
2022-12-08T04:13:12.620Z,95111.34
2022-12-08T04:15:11.512Z,95111.59
2022-12-08T04:17:09.546Z,95116.03
2022-12-08T04:19:07.497Z,95104.81
2022-12-08T04:21:05.625Z,95105.41
2022-12-08T04:23:03.749Z,95103.56
2022-12-08T04:25:01.822Z,95112.09
2022-12-08T04:27:01.166Z,95107.81
2022-12-08T04:28:59.220Z,95116.59
2022-12-08T04:30:57.365Z,95111.94
2022-12-08T04:32:55.382Z,95114.63
2022-12-08T04:34:53.406Z,95114.53
2022-12-08T04:36:51.366Z,95109.53
2022-12-08T04:38:49.184Z,95110.25
2022-12-08T04:40:47.716Z,95122.09
2022-12-08T04:42:47.269Z,95121.16
2022-12-08T04:44:45.331Z,95112.22
2022-12-08T04:46:43.874Z,95104.25
2022-12-08T04:48:42.005Z,95110.03
2022-12-08T04:50:41.395Z,95123.00
2022-12-08T04:52:39.470Z,95134.56
2022-12-08T04:54:37.441Z,95122.44
2022-12-08T04:56:35.486Z,95122.06
2022-12-08T04:58:34.921Z,95116.47
2022-12-08T05:00:32.988Z,95118.22
2022-12-08T05:02:30.911Z,95123.25
2022-12-08T05:04:29.015Z,95123.25
2022-12-08T05:06:27.022Z,95126.13
2022-12-08T05:08:25.231Z,95122.34
2022-12-08T05:10:23.542Z,95137.06
2022-12-08T05:12:21.484Z,95143.25
2022-12-08T05:14:20.864Z,95143.34
2022-12-08T05:16:18.999Z,95131.88
2022-12-08T05:18:17.019Z,95134.63
2022-12-08T05:20:15.095Z,95138.22
2022-12-08T05:22:13.213Z,95134.72
2022-12-08T05:24:11.379Z,95141.69
2022-12-08T05:26:09.490Z,95149.63
2022-12-08T05:28:39.515Z,95147.09
2022-12-08T05:30:26.784Z,95143.94
2022-12-08T05:32:24.792Z,95146.09
2022-12-08T05:34:22.661Z,95144.41
2022-12-08T05:36:21.003Z,95147.16
2022-12-08T05:38:19.043Z,95147.41
2022-12-08T05:40:17.254Z,95154.66
2022-12-08T05:42:16.728Z,95152.59
2022-12-08T05:44:16.507Z,95155.88
2022-12-08T05:46:16.324Z,95151.28
2022-12-08T05:48:14.455Z,95155.56
2022-12-08T05:50:12.588Z,95155.19
2022-12-08T05:52:10.569Z,95151.41
2022-12-08T05:54:08.495Z,95152.00
2022-12-08T05:56:06.817Z,95155.75
2022-12-08T05:58:08.036Z,95155.84
2022-12-08T06:00:07.859Z,95153.25
2022-12-08T06:02:11.234Z,95161.88
2022-12-08T06:04:10.221Z,95165.59
2022-12-08T06:06:08.399Z,95176.91
2022-12-08T06:08:06.549Z,95174.16
2022-12-08T06:10:05.147Z,95172.09
2022-12-08T06:12:03.901Z,95172.09
2022-12-08T06:14:04.403Z,95171.94
2022-12-08T06:16:04.896Z,95169.16
2022-12-08T06:18:04.171Z,95171.53
2022-12-08T06:20:02.810Z,95180.50
2022-12-08T06:22:01.172Z,95170.97
2022-12-08T06:23:59.314Z,95176.41
2022-12-08T06:26:01.275Z,95178.69
2022-12-08T06:27:59.371Z,95182.28
2022-12-08T06:29:57.730Z,95189.72
2022-12-08T06:31:55.996Z,95180.34
2022-12-08T06:33:56.232Z,95181.00
2022-12-08T06:35:54.199Z,95180.31
2022-12-08T06:37:52.213Z,95175.59
2022-12-08T06:39:50.292Z,95178.31
2022-12-08T06:42:05.742Z,95170.03
2022-12-08T06:44:03.698Z,95161.41
2022-12-08T06:46:02.211Z,95170.63
2022-12-08T06:48:00.061Z,95162.56
2022-12-08T06:49:59.482Z,95169.34
2022-12-08T06:51:57.691Z,95172.88
2022-12-08T06:53:55.699Z,95163.66
2022-12-08T06:56:01.543Z,95165.31
2022-12-08T06:57:59.658Z,95169.41
2022-12-08T06:59:57.582Z,95161.25
2022-12-08T07:01:55.638Z,95164.03
2022-12-08T07:03:53.855Z,95175.38
2022-12-08T07:06:01.795Z,95179.94
2022-12-08T07:08:01.794Z,95185.59
2022-12-08T07:09:59.939Z,95194.25
2022-12-08T07:11:58.124Z,95190.63
2022-12-08T07:13:56.815Z,95195.56
2022-12-08T07:15:54.811Z,95199.09
2022-12-08T07:17:59.358Z,95193.31
2022-12-08T07:19:58.025Z,95195.91
2022-12-08T07:21:57.595Z,95197.50
2022-12-08T07:23:57.795Z,95195.38
2022-12-08T07:25:56.141Z,95198.59
2022-12-08T07:27:54.114Z,95207.16
2022-12-08T07:29:52.225Z,95201.28
2022-12-08T07:31:50.684Z,95210.50
2022-12-08T07:33:50.222Z,95207.78
2022-12-08T07:35:54.772Z,95213.88
2022-12-08T07:37:54.400Z,95212.00
2022-12-08T07:39:52.447Z,95209.88
2022-12-08T07:41:50.833Z,95205.78
2022-12-08T07:43:48.831Z,95210.09
2022-12-08T07:45:46.810Z,95207.50
2022-12-08T07:47:44.933Z,95203.19
2022-12-08T07:49:43.117Z,95207.91
2022-12-08T07:51:41.050Z,95202.72
2022-12-08T07:53:42.830Z,95211.41
2022-12-08T07:55:41.765Z,95203.44
2022-12-08T07:57:39.812Z,95204.28
2022-12-08T07:59:37.971Z,95205.09
2022-12-08T08:01:36.238Z,95202.91
2022-12-08T08:03:34.541Z,95198.66
2022-12-08T08:05:32.523Z,95198.44
2022-12-08T08:07:31.924Z,95196.34
2022-12-08T08:09:31.409Z,95196.56
2022-12-08T08:11:29.341Z,95204.66
2022-12-08T08:13:27.371Z,95201.91
2022-12-08T08:15:25.595Z,95208.78
2022-12-08T08:17:23.892Z,95200.88
2022-12-08T08:19:21.980Z,95200.59
2022-12-08T08:23:38.378Z,95205.16
2022-12-08T08:25:37.723Z,95199.31
2022-12-08T08:27:35.928Z,95206.34
2022-12-08T08:29:33.740Z,95208.53
2022-12-08T08:31:31.682Z,95214.00
2022-12-08T08:33:29.921Z,95204.22
2022-12-08T08:35:27.814Z,95194.88
2022-12-08T08:37:25.804Z,95196.16
2022-12-08T08:39:23.818Z,95203.25
2022-12-08T08:41:23.119Z,95198.00
2022-12-08T08:43:38.047Z,95200.91
2022-12-08T08:45:36.760Z,95193.25
2022-12-08T08:47:34.692Z,95189.72
2022-12-08T08:49:32.728Z,95180.44
2022-12-08T08:51:30.684Z,95190.41
2022-12-08T08:53:28.731Z,95186.47
2022-12-08T08:55:26.760Z,95170.16
2022-12-08T08:57:26.391Z,95175.47
2022-12-08T08:59:24.483Z,95187.41
2022-12-08T09:01:24.062Z,95175.47
2022-12-08T09:03:22.186Z,95175.69
2022-12-08T09:05:20.221Z,95173.56
2022-12-08T09:07:18.086Z,95169.59
2022-12-08T09:09:16.460Z,95167.84
2022-12-08T09:11:14.686Z,95171.59
2022-12-08T09:13:14.044Z,95169.25
2022-12-08T09:15:12.101Z,95174.75
2022-12-08T09:17:10.281Z,95168.53
2022-12-08T09:19:08.336Z,95157.13
2022-12-08T09:21:06.939Z,95156.22
2022-12-08T09:23:04.898Z,95157.28
2022-12-08T09:25:03.026Z,95157.50
2022-12-08T09:27:00.934Z,95162.25
2022-12-08T09:29:00.522Z,95155.56
2022-12-08T09:30:58.588Z,95155.00
2022-12-08T09:32:56.582Z,95157.31
2022-12-08T09:34:54.816Z,95150.94
2022-12-08T09:36:52.912Z,95144.75
2022-12-08T09:38:53.628Z,95145.53
2022-12-08T09:40:52.953Z,95144.94
2022-12-08T09:42:52.612Z,95150.22
2022-12-08T09:44:57.416Z,95142.53
2022-12-08T09:46:57.709Z,95143.72
2022-12-08T09:48:56.860Z,95142.19
2022-12-08T09:50:56.730Z,95135.94
2022-12-08T09:53:00.060Z,95131.72
2022-12-08T09:55:00.228Z,95124.78
2022-12-08T09:57:00.502Z,95125.88
2022-12-08T09:58:59.891Z,95109.44
2022-12-08T10:00:59.303Z,95111.88
2022-12-08T10:02:57.556Z,95113.94
2022-12-08T10:04:56.184Z,95112.53
2022-12-08T10:07:00.521Z,95104.44
2022-12-08T10:09:02.654Z,95103.16
2022-12-08T10:11:06.141Z,95103.00
2022-12-08T10:13:08.463Z,95100.53
2022-12-08T10:15:14.687Z,95107.09
2022-12-08T10:17:17.883Z,95097.09
2022-12-08T10:19:19.141Z,95087.94
2022-12-08T10:21:19.919Z,95092.75
2022-12-08T10:23:22.384Z,95081.81
2022-12-08T10:25:22.175Z,95096.84
2022-12-08T10:27:21.225Z,95091.38
2022-12-08T10:29:19.189Z,95082.28
2022-12-08T10:31:18.740Z,95085.44
2022-12-08T10:33:19.368Z,95088.19
2022-12-08T10:35:18.249Z,95086.63
2022-12-08T10:37:16.650Z,95085.25
2022-12-08T10:39:30.115Z,95070.38
2022-12-08T10:41:28.283Z,95074.34
2022-12-08T10:43:28.188Z,95069.91
2022-12-08T10:45:27.277Z,95065.41
2022-12-08T10:47:26.856Z,95065.13
2022-12-08T10:49:28.955Z,95059.81
2022-12-08T10:51:29.744Z,95061.91
2022-12-08T10:53:29.421Z,95052.53
2022-12-08T10:55:27.849Z,95043.66
2022-12-08T10:57:25.972Z,95047.06
2022-12-08T10:59:25.625Z,95050.34
2022-12-08T11:01:25.514Z,95047.31
2022-12-08T11:03:26.330Z,95038.13
2022-12-08T11:05:33.346Z,95037.97
2022-12-08T11:07:31.664Z,95040.97
2022-12-08T11:09:37.741Z,95038.03
2022-12-08T11:11:40.126Z,95037.16
2022-12-08T11:13:41.627Z,95043.00
2022-12-08T11:15:41.668Z,95033.88
2022-12-08T11:17:40.663Z,95028.69
2022-12-08T11:19:39.735Z,95028.72
2022-12-08T11:21:39.147Z,95022.22
2022-12-08T11:23:38.177Z,95025.75
2022-12-08T11:25:36.556Z,95030.94
2022-12-08T11:27:36.756Z,95017.22
2022-12-08T11:29:36.458Z,95019.06
2022-12-08T11:31:36.227Z,95018.72
2022-12-08T11:33:35.676Z,95010.81
2022-12-08T11:35:36.138Z,95011.50
2022-12-08T11:37:39.578Z,95012.56
2022-12-08T11:39:43.107Z,95014.66
2022-12-08T11:45:04.778Z,95006.66
2022-12-08T11:47:06.470Z,95007.91
2022-12-08T11:49:07.051Z,95002.25
2022-12-08T11:51:07.446Z,95008.34
2022-12-08T11:53:10.128Z,95001.91
2022-12-08T11:55:18.878Z,94999.91
2022-12-08T11:57:20.793Z,95005.28
2022-12-08T11:59:22.864Z,95009.16
2022-12-08T12:01:22.353Z,95001.94
2022-12-08T12:03:24.226Z,95000.53
2022-12-08T12:05:47.584Z,95007.59
2022-12-08T12:08:06.945Z,95000.41
2022-12-08T12:10:13.643Z,95003.31
2022-12-08T12:12:20.976Z,95006.78
2022-12-08T12:14:33.224Z,94995.97
2022-12-08T12:16:38.739Z,94990.03
2022-12-08T12:18:38.859Z,94999.03
2022-12-08T12:20:39.163Z,94992.13
2022-12-08T12:22:38.868Z,94995.25
2022-12-08T12:24:38.751Z,94992.78
2022-12-08T12:26:39.267Z,94988.06
2022-12-08T12:28:42.649Z,94977.00
2022-12-08T12:30:53.228Z,94974.19
2022-12-08T12:32:54.489Z,94968.38
2022-12-08T12:34:54.687Z,94974.34
2022-12-08T12:36:54.911Z,94981.34
2022-12-08T12:39:04.529Z,94971.91
2022-12-08T12:41:08.329Z,94975.56
2022-12-08T12:43:29.535Z,94976.13
2022-12-08T12:45:29.697Z,94977.25
2022-12-08T12:47:42.598Z,94979.75
2022-12-08T12:49:53.207Z,94978.66
2022-12-08T12:51:55.439Z,94979.34
2022-12-08T12:53:53.364Z,94977.28
2022-12-08T12:55:55.525Z,94976.72
2022-12-08T12:57:55.030Z,94966.44
2022-12-08T13:00:08.586Z,94963.81
2022-12-08T13:02:17.658Z,94960.38
2022-12-08T13:04:16.505Z,94949.00
2022-12-08T13:06:15.964Z,94946.22
2022-12-08T13:08:20.651Z,94941.25
2022-12-08T13:10:21.020Z,94948.63
2022-12-08T13:12:23.712Z,94950.16
2022-12-08T13:14:28.298Z,94941.72
2022-12-08T13:16:27.918Z,94949.19
2022-12-08T13:18:28.720Z,94951.16
2022-12-08T13:20:27.043Z,94948.53
2022-12-08T13:22:43.571Z,94948.22
2022-12-08T13:24:42.246Z,94945.75
2022-12-08T13:26:45.432Z,94950.44
2022-12-08T13:29:03.636Z,94954.19
2022-12-08T13:31:01.802Z,94953.25
2022-12-08T13:33:18.727Z,94951.00
2022-12-08T13:35:18.933Z,94950.03
2022-12-08T13:37:23.455Z,94946.56
2022-12-08T13:39:22.996Z,94937.97
2022-12-08T13:41:23.571Z,94941.72
2022-12-08T13:43:26.210Z,94940.63
2022-12-08T13:45:59.469Z,94948.06
2022-12-08T13:48:20.544Z,94945.03
2022-12-08T13:57:27.356Z,94956.34
2022-12-08T13:59:28.669Z,94957.59
2022-12-08T14:01:27.175Z,94958.28
2022-12-08T14:03:27.405Z,94957.84
2022-12-08T14:05:47.657Z,94958.28
2022-12-08T14:07:46.181Z,94965.97
2022-12-08T14:09:44.467Z,94964.72
2022-12-08T14:11:44.344Z,94960.56
2022-12-08T14:13:42.523Z,94967.47
2022-12-08T14:15:41.541Z,94960.41
2022-12-08T14:17:40.737Z,94946.72
2022-12-08T14:19:39.288Z,94946.41
2022-12-08T14:21:38.885Z,94950.13
2022-12-08T14:23:38.137Z,94962.13
2022-12-08T14:25:37.489Z,94969.28
2022-12-08T14:27:36.482Z,94970.66
2022-12-08T14:29:41.202Z,94983.56
2022-12-08T14:31:39.315Z,94979.13
2022-12-08T14:33:37.332Z,94971.88
2022-12-08T14:35:36.855Z,94969.06
2022-12-08T14:37:36.601Z,94965.44
2022-12-08T14:39:37.257Z,94959.22
2022-12-08T14:41:35.478Z,94953.13
2022-12-08T14:43:33.646Z,94953.31
2022-12-08T14:45:34.955Z,94953.03
2022-12-08T14:47:34.496Z,94956.53
2022-12-08T14:49:35.783Z,94956.31
2022-12-08T14:51:34.533Z,94961.69
2022-12-08T14:53:38.370Z,94965.44
2022-12-08T14:55:38.607Z,94964.69
2022-12-08T14:57:37.008Z,94965.56
2022-12-08T14:59:36.787Z,94974.03
2022-12-08T15:01:35.353Z,94981.56
2022-12-08T15:03:33.684Z,94972.34
2022-12-08T15:05:32.423Z,94964.34
2022-12-08T15:07:32.039Z,94961.97
2022-12-08T15:09:31.754Z,94964.84
2022-12-08T15:11:36.212Z,94959.00
2022-12-08T15:13:34.078Z,94965.59
2022-12-08T15:15:32.981Z,94968.25
2022-12-08T15:17:34.371Z,94976.59
2022-12-08T15:19:33.244Z,94971.41
2022-12-08T15:21:32.602Z,94971.28
2022-12-08T15:23:32.633Z,94965.47
2022-12-08T15:25:30.560Z,94979.50
2022-12-08T15:27:29.993Z,94988.06
2022-12-08T15:29:28.929Z,94983.69
2022-12-08T15:31:27.048Z,94989.03
2022-12-08T15:33:25.151Z,94984.31
2022-12-08T15:35:23.135Z,94972.06
2022-12-08T15:37:22.868Z,94969.00
2022-12-08T15:39:25.872Z,94977.47
2022-12-08T15:41:23.852Z,94982.50
2022-12-08T15:43:23.696Z,94984.63
2022-12-08T15:45:24.549Z,94984.88
2022-12-08T15:47:23.907Z,94978.56
2022-12-08T15:49:23.026Z,94981.06
2022-12-08T15:51:20.985Z,94979.16
2022-12-08T15:53:19.053Z,94978.66
2022-12-08T15:55:19.779Z,94984.25
2022-12-08T15:57:40.308Z,94993.63
2022-12-08T15:59:40.290Z,94977.44
2022-12-08T16:01:38.437Z,94963.13
2022-12-08T16:04:27.486Z,94971.00
2022-12-08T16:06:39.047Z,94986.13
2022-12-08T16:08:38.275Z,94983.44
2022-12-08T16:11:08.474Z,94983.91
2022-12-08T16:17:48.421Z,95009.41
2022-12-08T16:19:47.047Z,95004.63
2022-12-08T16:22:30.371Z,95008.44
2022-12-08T16:24:08.891Z,95013.56
2022-12-08T16:26:23.973Z,95008.28
2022-12-08T16:28:53.360Z,95001.03
2022-12-08T16:30:45.186Z,94997.00
2022-12-08T16:32:43.301Z,94992.97
2022-12-08T16:34:41.279Z,94996.78
2022-12-08T16:36:39.268Z,95001.44
2022-12-08T16:38:37.560Z,94990.09
2022-12-08T16:40:56.824Z,95006.31
2022-12-08T16:42:53.726Z,94999.41
2022-12-08T16:44:52.012Z,95008.34
2022-12-08T16:46:51.602Z,95006.31
2022-12-08T16:48:49.802Z,95009.16
2022-12-08T16:50:47.838Z,95003.47
2022-12-08T16:52:46.486Z,94999.75
2022-12-08T16:54:44.516Z,95000.13
2022-12-08T16:56:42.639Z,94999.66
2022-12-08T16:58:40.640Z,95004.31
2022-12-08T17:00:38.708Z,95002.84
2022-12-08T17:02:38.229Z,94997.03
2022-12-08T17:04:36.136Z,95002.25
2022-12-08T17:06:34.541Z,95004.41
2022-12-08T17:08:32.595Z,95003.22
2022-12-08T17:10:31.835Z,95008.69
2022-12-08T17:12:29.784Z,95009.66
2022-12-08T17:14:27.771Z,95004.56
2022-12-08T17:16:27.039Z,95004.78
2022-12-08T17:18:26.435Z,95005.84
2022-12-08T17:20:25.113Z,95019.41
2022-12-08T17:22:23.192Z,95023.44
2022-12-08T17:24:23.217Z,95018.69
2022-12-08T17:26:21.239Z,94998.00
2022-12-08T17:28:43.984Z,94999.66
2022-12-08T17:30:37.312Z,95014.44
2022-12-08T17:32:35.485Z,95010.84
2022-12-08T17:34:34.893Z,95010.03
2022-12-08T17:36:33.136Z,95013.81
2022-12-08T17:38:31.262Z,95019.91
2022-12-08T17:40:29.438Z,95023.09
2022-12-08T17:42:27.590Z,95022.28
2022-12-08T17:44:25.632Z,95035.31
2022-12-08T17:46:26.776Z,95034.72
2022-12-08T17:48:24.898Z,95029.38
2022-12-08T17:50:24.224Z,95019.63
2022-12-08T17:52:22.309Z,95017.00
2022-12-08T17:54:20.601Z,95024.97
2022-12-08T17:56:20.023Z,95020.59
2022-12-08T17:58:18.090Z,95018.19
2022-12-08T18:00:16.267Z,95019.63
2022-12-08T18:02:15.198Z,95037.34
2022-12-08T18:04:14.011Z,95039.94
2022-12-08T18:06:13.925Z,95042.44
2022-12-08T18:08:12.460Z,95035.75
2022-12-08T18:10:10.612Z,95043.84
2022-12-08T18:12:08.777Z,95048.69
2022-12-08T18:14:10.159Z,95051.41
2022-12-08T18:16:08.369Z,95044.66
2022-12-08T18:18:06.482Z,95055.31
2022-12-08T18:20:08.164Z,95046.44
2022-12-08T18:22:07.766Z,95035.13
2022-12-08T18:24:06.223Z,95026.00
2022-12-08T18:26:05.032Z,95034.53
2022-12-08T18:28:03.013Z,95054.03
2022-12-08T18:30:02.143Z,95064.75
2022-12-08T18:32:00.097Z,95068.88
2022-12-08T18:33:58.218Z,95062.81
2022-12-08T18:35:56.214Z,95066.41
2022-12-08T18:37:55.562Z,95062.59
2022-12-08T18:39:53.776Z,95070.22
2022-12-08T18:41:51.918Z,95057.16
2022-12-08T18:43:50.001Z,95063.91
2022-12-08T18:45:48.058Z,95067.13
2022-12-08T18:47:46.214Z,95070.34
2022-12-08T18:49:44.303Z,95071.81
2022-12-08T18:51:42.388Z,95068.84
2022-12-08T18:53:41.858Z,95067.41
2022-12-08T18:55:39.952Z,95064.28
2022-12-08T18:57:39.479Z,95060.50
2022-12-08T18:59:38.706Z,95059.44
2022-12-08T19:01:37.599Z,95054.34
2022-12-08T19:03:35.768Z,95053.41
2022-12-08T19:05:33.788Z,95050.78
2022-12-08T19:07:31.982Z,95047.69
2022-12-08T19:09:31.371Z,95056.59
2022-12-08T19:11:29.857Z,95052.66
2022-12-08T19:13:28.213Z,95057.31
2022-12-08T19:15:26.248Z,95056.47
2022-12-08T19:17:25.851Z,95054.09
2022-12-08T19:19:24.078Z,95054.22
2022-12-08T19:21:23.981Z,95065.50
2022-12-08T19:23:21.923Z,95055.16
2022-12-08T19:25:22.014Z,95065.47
2022-12-08T19:27:20.011Z,95045.59
2022-12-08T19:29:18.078Z,95051.69
2022-12-08T19:31:16.077Z,95046.69
2022-12-08T19:33:14.263Z,95065.22
2022-12-08T19:35:12.694Z,95079.69
2022-12-08T19:37:12.620Z,95086.81
2022-12-08T19:39:30.848Z,95095.50
2022-12-08T19:41:47.489Z,95094.81
2022-12-08T19:44:03.173Z,95098.16
2022-12-08T19:46:01.671Z,95097.44
2022-12-08T19:47:59.696Z,95104.22
2022-12-08T19:50:17.878Z,95096.81
2022-12-08T19:52:16.017Z,95098.44
2022-12-08T19:54:14.171Z,95094.38
2022-12-08T19:56:12.226Z,95102.56
2022-12-08T19:58:11.950Z,95104.06
2022-12-08T20:00:11.395Z,95107.84
2022-12-08T20:02:09.745Z,95110.66
2022-12-08T20:04:07.880Z,95105.56
2022-12-08T20:06:06.113Z,95100.69
2022-12-08T20:08:04.521Z,95114.97
2022-12-08T20:10:04.688Z,95115.19
2022-12-08T20:12:03.228Z,95118.13
2022-12-08T20:14:02.717Z,95116.69
2022-12-08T20:16:00.866Z,95131.88
2022-12-08T20:17:58.871Z,95138.22
2022-12-08T20:19:56.833Z,95144.13
2022-12-08T20:21:54.771Z,95149.56
2022-12-08T20:23:52.890Z,95154.78
2022-12-08T20:25:51.076Z,95153.72
2022-12-08T20:27:49.080Z,95147.44
2022-12-08T20:29:48.607Z,95139.09
2022-12-08T20:31:46.760Z,95126.38
2022-12-08T20:33:44.864Z,95123.44
2022-12-08T20:35:43.435Z,95126.59
2022-12-08T20:37:41.625Z,95124.16
2022-12-08T20:39:39.639Z,95120.63
2022-12-08T20:41:39.356Z,95116.97
2022-12-08T20:43:37.537Z,95110.13
2022-12-08T20:45:37.399Z,95117.41
2022-12-08T20:47:35.516Z,95122.34
2022-12-08T20:49:34.943Z,95130.78
2022-12-08T20:51:34.409Z,95128.59
2022-12-08T20:53:32.532Z,95119.09
2022-12-08T20:55:30.634Z,95123.47
2022-12-08T20:57:42.109Z,95126.06
2022-12-08T20:59:40.116Z,95131.81
2022-12-08T21:01:39.771Z,95134.94
2022-12-08T21:03:38.025Z,95137.88
2022-12-08T21:05:38.842Z,95136.81
2022-12-08T21:07:39.877Z,95127.63
2022-12-08T21:09:38.189Z,95142.34
2022-12-08T21:11:36.880Z,95142.03
2022-12-08T21:13:35.440Z,95145.97
2022-12-08T21:15:33.564Z,95131.47
2022-12-08T21:17:33.279Z,95127.59
2022-12-08T21:19:31.281Z,95140.69
2022-12-08T21:21:29.426Z,95143.22
2022-12-08T21:23:27.570Z,95145.63
2022-12-08T21:25:26.076Z,95148.06
2022-12-08T21:27:24.332Z,95154.81
2022-12-08T21:29:22.529Z,95148.69
2022-12-08T21:31:21.693Z,95145.97
2022-12-08T21:33:21.276Z,95151.81
2022-12-08T21:35:19.281Z,95143.88
2022-12-08T21:37:17.757Z,95148.25
2022-12-08T21:39:15.797Z,95141.28
2022-12-08T21:41:15.187Z,95135.53
2022-12-08T21:43:12.782Z,95133.88
2022-12-08T21:45:12.276Z,95147.81
2022-12-08T21:47:10.508Z,95145.84
2022-12-08T21:49:09.942Z,95142.22
2022-12-08T21:51:08.367Z,95150.03
2022-12-08T21:53:06.550Z,95143.25
2022-12-08T21:55:04.616Z,95142.97
2022-12-08T21:57:03.017Z,95133.25
2022-12-08T21:59:01.500Z,95142.84
2022-12-08T22:01:05.700Z,95136.81
2022-12-08T22:03:04.173Z,95142.13
2022-12-08T22:05:05.463Z,95146.28
2022-12-08T22:07:03.912Z,95150.03
2022-12-08T22:09:02.219Z,95154.09
2022-12-08T22:11:00.521Z,95154.66
2022-12-08T22:12:58.581Z,95158.94
2022-12-08T22:14:56.799Z,95150.34
2022-12-08T22:16:54.970Z,95153.28
2022-12-08T22:18:53.251Z,95139.72
2022-12-08T22:20:52.689Z,95145.03
2022-12-08T22:22:50.759Z,95149.59
2022-12-08T22:24:48.777Z,95153.25
2022-12-08T22:26:46.795Z,95146.34
2022-12-08T22:28:45.291Z,95159.41
2022-12-08T22:30:43.324Z,95153.47
2022-12-08T22:32:42.085Z,95160.53
2022-12-08T22:34:40.442Z,95157.22
2022-12-08T22:36:39.873Z,95150.94
2022-12-08T22:38:37.907Z,95149.91
2022-12-08T22:40:36.068Z,95161.28
2022-12-08T22:42:34.182Z,95163.16
2022-12-08T22:44:32.278Z,95155.31
2022-12-08T22:46:30.293Z,95152.22
2022-12-08T22:48:28.391Z,95158.06
2022-12-08T22:50:26.488Z,95159.63
2022-12-08T22:52:26.060Z,95159.31
2022-12-08T22:54:24.347Z,95160.28
2022-12-08T22:56:22.307Z,95153.41
2022-12-08T22:58:20.471Z,95146.19
2022-12-08T23:00:19.472Z,95137.00
2022-12-08T23:02:17.937Z,95142.59
2022-12-08T23:04:18.388Z,95144.69
2022-12-08T23:06:16.622Z,95143.47
2022-12-08T23:08:18.034Z,95138.16
2022-12-08T23:10:16.531Z,95139.94
2022-12-08T23:12:14.566Z,95129.38
2022-12-08T23:14:12.594Z,95124.47
2022-12-08T23:16:11.322Z,95124.66
2022-12-08T23:18:09.771Z,95121.22
2022-12-08T23:20:08.790Z,95134.06
2022-12-08T23:22:07.489Z,95121.75
2022-12-08T23:24:07.418Z,95126.50
2022-12-08T23:26:18.033Z,95137.53
2022-12-08T23:28:16.210Z,95143.16
2022-12-08T23:30:14.631Z,95149.50
2022-12-08T23:32:12.617Z,95134.25
2022-12-08T23:34:11.214Z,95143.72
2022-12-08T23:36:10.081Z,95142.72
2022-12-08T23:38:08.215Z,95138.03
2022-12-08T23:40:08.896Z,95147.53
2022-12-08T23:42:07.133Z,95149.00
2022-12-08T23:44:05.103Z,95143.78
2022-12-08T23:46:03.245Z,95151.94
2022-12-08T23:48:01.837Z,95132.31
2022-12-08T23:49:59.980Z,95143.16
2022-12-08T23:51:57.886Z,95142.72
2022-12-08T23:53:55.973Z,95144.88